Map

Track Data

SID SEASON NUMBER BASIN SUBBASIN NAME ISO_TIME NATURE LAT LON WMO_WIND WMO_PRES WMO_AGENCY TRACK_TYPE DIST2LAND LANDFALL IFLAG USA_AGENCY USA_ATCF_ID USA_LAT USA_LON USA_RECORD USA_STATUS USA_WIND USA_PRES USA_SSHS USA_R34_NE USA_R34_SE USA_R34_SW USA_R34_NW USA_R50_NE USA_R50_SE USA_R50_SW USA_R50_NW USA_R64_NE USA_R64_SE USA_R64_SW USA_R64_NW USA_POCI USA_ROCI USA_RMW USA_EYE TOKYO_LAT TOKYO_LON TOKYO_GRADE TOKYO_WIND TOKYO_PRES TOKYO_R50_DIR TOKYO_R50_LONG TOKYO_R50_SHORT TOKYO_R30_DIR TOKYO_R30_LONG TOKYO_R30_SHORT TOKYO_LAND CMA_LAT CMA_LON CMA_CAT CMA_WIND CMA_PRES HKO_LAT HKO_LON HKO_CAT HKO_WIND HKO_PRES NEWDELHI_LAT NEWDELHI_LON NEWDELHI_GRADE NEWDELHI_WIND NEWDELHI_PRES NEWDELHI_CI NEWDELHI_DP NEWDELHI_POCI REUNION_LAT REUNION_LON REUNION_TYPE REUNION_WIND REUNION_PRES REUNION_TNUM REUNION_CI REUNION_RMW REUNION_R34_NE REUNION_R34_SE REUNION_R34_SW REUNION_R34_NW REUNION_R50_NE REUNION_R50_SE REUNION_R50_SW REUNION_R50_NW REUNION_R64_NE REUNION_R64_SE REUNION_R64_SW REUNION_R64_NW BOM_LAT BOM_LON BOM_TYPE BOM_WIND BOM_PRES BOM_TNUM BOM_CI BOM_RMW BOM_R34_NE BOM_R34_SE BOM_R34_SW BOM_R34_NW BOM_R50_NE BOM_R50_SE BOM_R50_SW BOM_R50_NW BOM_R64_NE BOM_R64_SE BOM_R64_SW BOM_R64_NW BOM_ROCI BOM_POCI BOM_EYE BOM_POS_METHOD BOM_PRES_METHOD NADI_LAT NADI_LON NADI_CAT NADI_WIND NADI_PRES WELLINGTON_LAT WELLINGTON_LON WELLINGTON_WIND WELLINGTON_PRES DS824_LAT DS824_LON DS824_STAGE DS824_WIND DS824_PRES TD9636_LAT TD9636_LON TD9636_STAGE TD9636_WIND TD9636_PRES TD9635_LAT TD9635_LON TD9635_WIND TD9635_PRES TD9635_ROCI NEUMANN_LAT NEUMANN_LON NEUMANN_CLASS NEUMANN_WIND NEUMANN_PRES MLC_LAT MLC_LON MLC_CLASS MLC_WIND MLC_PRES USA_GUST BOM_GUST BOM_GUST_PER REUNION_GUST REUNION_GUST_PER USA_SEAHGT USA_SEARAD_NE USA_SEARAD_SE USA_SEARAD_SW USA_SEARAD_NW STORM_SPEED STORM_DIR
1896188N17124 1896 16 WP MM NOT_NAMED 1896-07-05 16:00:00 NR 16.7000 123.500 main 108 75 __________O___ -1 16.7000 123.500 7 9 290
1896188N17124 1896 16 WP MM NOT_NAMED 1896-07-05 18:00:00 NR 16.8030 123.205 main 75 31 __________P___ -1 16.8030 123.205 7 9 290
1896188N17124 1896 16 WP MM NOT_NAMED 1896-07-05 21:00:00 NR 16.9623 122.754 main 31 0 __________P___ -1 16.9623 122.754 7 9 291
1896188N17124 1896 16 WP MM NOT_NAMED 1896-07-06 00:00:00 NR 17.1348 122.283 main 0 0 __________P___ -1 17.1348 122.283 7 10 291
1896188N17124 1896 16 WP MM NOT_NAMED 1896-07-06 03:00:00 NR 17.3290 121.778 main 0 0 __________P___ -1 17.3290 121.778 7 11 292
1896188N17124 1896 16 WP MM NOT_NAMED 1896-07-06 04:00:00 NR 17.4000 121.600 main 0 0 __________O___ -1 17.4000 121.600 7 11 293
1896188N17124 1896 16 WP MM NOT_NAMED 1896-07-06 06:00:00 NR 17.5521 121.229 main 0 0 __________P___ -1 17.5521 121.229 7 12 294
1896188N17124 1896 16 WP MM NOT_NAMED 1896-07-06 09:00:00 NR 17.7993 120.640 main 0 0 __________P___ -1 17.7993 120.640 7 13 294
1896188N17124 1896 16 WP MM NOT_NAMED 1896-07-06 12:00:00 NR 18.0581 120.027 main 52 52 __________P___ -1 18.0581 120.027 7 13 294
1896188N17124 1896 16 WP MM NOT_NAMED 1896-07-06 15:00:00 NR 18.3162 119.406 main 118 118 __________P___ -1 18.3162 119.406 7 13 294
1896188N17124 1896 16 WP MM NOT_NAMED 1896-07-06 16:00:00 NR 18.4000 119.200 main 141 141 __________O___ -1 18.4000 119.200 7 13 292
1896188N17124 1896 16 WP MM NOT_NAMED 1896-07-06 18:00:00 NR 18.5583 118.782 main 187 198 __________P___ -1 18.5583 118.782 7 13 291
1896188N17124 1896 16 WP MM NOT_NAMED 1896-07-06 21:00:00 NR 18.7897 118.154 main 254 265 __________P___ -1 18.7897 118.154 7 13 291
1896188N17124 1896 16 WP MM NOT_NAMED 1896-07-07 00:00:00 NR 19.0135 117.545 main 331 331 __________P___ -1 19.0135 117.545 7 12 292
1896188N17124 1896 16 WP MM NOT_NAMED 1896-07-07 03:00:00 NR 19.2296 116.976 main 388 394 __________P___ -1 19.2296 116.976 7 11 292
1896188N17124 1896 16 WP MM NOT_NAMED 1896-07-07 04:00:00 NR 19.3000 116.800 main 394 376 __________O___ -1 19.3000 116.800 3 10 294
1896188N17124 1896 16 WP MM NOT_NAMED 1896-07-07 06:00:00 NR 19.4435 116.476 main 376 333 __________P___ -1 19.4435 116.476 3 10 296
1896188N17124 1896 16 WP MM NOT_NAMED 1896-07-07 09:00:00 NR 19.6533 116.035 main 333 299 __________P___ -1 19.6533 116.035 3 9 297
1896188N17124 1896 16 WP MM NOT_NAMED 1896-07-07 12:00:00 NR 19.8535 115.628 main 299 273 __________P___ -1 19.8535 115.628 3 9 297
1896188N17124 1896 16 WP MM NOT_NAMED 1896-07-07 15:00:00 NR 20.0410 115.233 main 273 259 __________P___ -1 20.0410 115.233 3 8 296
1896188N17124 1896 16 WP MM NOT_NAMED 1896-07-07 16:00:00 NR 20.1000 115.100 main 259 240 __________O___ -1 20.1000 115.100 4 8 294
1896188N17124 1896 16 WP MM NOT_NAMED 1896-07-07 18:00:00 NR 20.2084 114.824 main 240 212 __________P___ -1 20.2084 114.824 4 8 292
1896188N17124 1896 16 WP MM NOT_NAMED 1896-07-07 21:00:00 NR 20.3586 114.411 main 212 187 __________P___ -1 20.3586 114.411 4 8 291
1896188N17124 1896 16 WP MM NOT_NAMED 1896-07-08 00:00:00 NR 20.5023 113.990 main 187 158 __________P___ -1 20.5023 113.990 4 9 290
1896188N17124 1896 16 WP MM NOT_NAMED 1896-07-08 03:00:00 NR 20.6489 113.551 main 158 140 __________P___ -1 20.6489 113.551 4 9 290
1896188N17124 1896 16 WP MM NOT_NAMED 1896-07-08 04:00:00 NR 20.7000 113.400 main 140 123 __________O___ -1 20.7000 113.400 4 9 291
1896188N17124 1896 16 WP MM NOT_NAMED 1896-07-08 06:00:00 NR 20.8134 113.086 main 123 84 __________P___ -1 20.8134 113.086 4 10 291
1896188N17124 1896 16 WP MM NOT_NAMED 1896-07-08 09:00:00 NR 20.9900 112.597 main 84 54 __________P___ -1 20.9900 112.597 4 10 291
1896188N17124 1896 16 WP MM NOT_NAMED 1896-07-08 12:00:00 NR 21.1688 112.091 main 54 22 __________P___ -1 21.1688 112.091 4 10 290
1896188N17124 1896 16 WP MM NOT_NAMED 1896-07-08 15:00:00 NR 21.3436 111.574 main 22 10 __________P___ -1 21.3436 111.574 4 10 290
1896188N17124 1896 16 WP MM NOT_NAMED 1896-07-08 16:00:00 NR 21.4000 111.400 main 10 0 __________O___ -1 21.4000 111.400 4 10 289
1896188N17124 1896 16 WP MM NOT_NAMED 1896-07-08 18:00:00 NR 21.5089 111.052 main 0 0 __________P___ -1 21.5089 111.052 4 10 288
1896188N17124 1896 16 WP MM NOT_NAMED 1896-07-08 21:00:00 NR 21.6639 110.528 main 0 0 __________P___ -1 21.6639 110.528 4 10 287
1896188N17124 1896 16 WP MM NOT_NAMED 1896-07-09 00:00:00 NR 21.8112 110.003 main 0 0 __________P___ -1 21.8112 110.003 4 10 286
1896188N17124 1896 16 WP MM NOT_NAMED 1896-07-09 03:00:00 NR 21.9533 109.476 main 0 0 __________P___ -1 21.9533 109.476 4 10 286
1896188N17124 1896 16 WP MM NOT_NAMED 1896-07-09 04:00:00 NR 22.0000 109.300 main 0 __________O___ -1 22.0000 109.300 7 10 286

Digital Typhoon Data and Search

About IBTrACS Database

This database is a web-friendly format of International Best Track Archive for Climate Stewardship (IBTrACS), a global best track data archive curated by NOAA dating back to 1842.

Updated: 2021-11-26